sensor_id;sensor_type;location;lat;lon;timestamp;pressure;altitude;pressure_sealevel;temperature;humidity
30343;BME280;17145;49.902;8.680;'2024-03-07 00:57:52';100740;;;6;48
30343;BME280;17145;49.902;8.680;'2024-03-07 01:00:20';100740;;;6;48
30343;BME280;17145;49.902;8.680;'2024-03-07 01:02:48';100740;;;6;48
30343;BME280;17145;49.902;8.680;'2024-03-07 01:05:16';100740;;;6;48
30343;BME280;17145;49.902;8.680;'2024-03-07 01:07:44';100740;;;6;48
30343;BME280;17145;49.902;8.680;'2024-03-07 01:10:11';100740;;;6;48
30343;BME280;17145;49.902;8.680;'2024-03-07 01:12:40';100740;;;6;48
30343;BME280;17145;49.902;8.680;'2024-03-07 01:15:09';100750;;;6;48
30343;BME280;17145;49.902;8.680;'2024-03-07 01:17:37';100750;;;6;48
30343;BME280;17145;49.902;8.680;'2024-03-07 01:20:06';100750;;;6;48
30343;BME280;17145;49.902;8.680;'2024-03-07 01:22:33';100750;;;6;48
30343;BME280;17145;49.902;8.680;'2024-03-07 01:25:01';100760;;;6;48
30343;BME280;17145;49.902;8.680;'2024-03-07 01:27:29';100760;;;6;48
30343;BME280;17145;49.902;8.680;'2024-03-07 01:29:56';100760;;;6;48
30343;BME280;17145;49.902;8.680;'2024-03-07 01:32:23';100760;;;6;48
30343;BME280;17145;49.902;8.680;'2024-03-07 01:34:51';100760;;;6;48
30343;BME280;17145;49.902;8.680;'2024-03-07 01:37:18';100760;;;6;48
30343;BME280;17145;49.902;8.680;'2024-03-07 01:39:46';100760;;;6;48
30343;BME280;17145;49.902;8.680;'2024-03-07 01:42:13';100760;;;5;48
30343;BME280;17145;49.902;8.680;'2024-03-07 01:44:40';100760;;;6;48
30343;BME280;17145;49.902;8.680;'2024-03-07 01:47:09';100760;;;6;49
30343;BME280;17145;49.902;8.680;'2024-03-07 01:49:37';100760;;;5;48
30343;BME280;17145;49.902;8.680;'2024-03-07 01:52:05';100760;;;5;48
30343;BME280;17145;49.902;8.680;'2024-03-07 01:54:32';100760;;;6;49
30343;BME280;17145;49.902;8.680;'2024-03-07 01:56:59';100760;;;6;48
30343;BME280;17145;49.902;8.680;'2024-03-07 01:59:27';100760;;;6;48
30343;BME280;17145;49.902;8.680;'2024-03-07 02:01:54';100760;;;6;48
30343;BME280;17145;49.902;8.680;'2024-03-07 02:04:22';100760;;;5;48
30343;BME280;17145;49.902;8.680;'2024-03-07 02:06:50';100760;;;5;48
30343;BME280;17145;49.902;8.680;'2024-03-07 02:09:17';100760;;;5;48
30343;BME280;17145;49.902;8.680;'2024-03-07 02:11:44';100750;;;6;48
30343;BME280;17145;49.902;8.680;'2024-03-07 02:14:12';100750;;;6;48
30343;BME280;17145;49.902;8.680;'2024-03-07 02:16:39';100750;;;5;49
30343;BME280;17145;49.902;8.680;'2024-03-07 02:19:07';100760;;;5;48
30343;BME280;17145;49.902;8.680;'2024-03-07 02:21:35';100750;;;5;48
30343;BME280;17145;49.902;8.680;'2024-03-07 02:24:02';100750;;;5;48
30343;BME280;17145;49.902;8.680;'2024-03-07 02:26:30';100750;;;5;48
30343;BME280;17145;49.902;8.680;'2024-03-07 02:28:57';100750;;;5;48
30343;BME280;17145;49.902;8.680;'2024-03-07 02:31:25';100750;;;5;48
30343;BME280;17145;49.902;8.680;'2024-03-07 02:33:52';100750;;;5;48
30343;BME280;17145;49.902;8.680;'2024-03-07 02:36:20';100740;;;5;48
30343;BME280;17145;49.902;8.680;'2024-03-07 02:38:47';100740;;;5;48
30343;BME280;17145;49.902;8.680;'2024-03-07 02:41:15';100740;;;5;48
30343;BME280;17145;49.902;8.680;'2024-03-07 02:43:43';100740;;;5;48
30343;BME280;17145;49.902;8.680;'2024-03-07 02:46:11';100740;;;5;48
30343;BME280;17145;49.902;8.680;'2024-03-07 02:48:38';100740;;;5;48
30343;BME280;17145;49.902;8.680;'2024-03-07 02:51:06';100740;;;5;48
30343;BME280;17145;49.902;8.680;'2024-03-07 02:53:34';100740;;;5;49
30343;BME280;17145;49.902;8.680;'2024-03-07 02:56:04';100730;;;5;49
30343;BME280;17145;49.902;8.680;'2024-03-07 02:58:32';100730;;;5;49
30343;BME280;17145;49.902;8.680;'2024-03-07 03:01:00';100730;;;5;49
30343;BME280;17145;49.902;8.680;'2024-03-07 03:03:31';100730;;;5;49
30343;BME280;17145;49.902;8.680;'2024-03-07 03:05:58';100720;;;4;49
30343;BME280;17145;49.902;8.680;'2024-03-07 03:08:26';100720;;;4;49
30343;BME280;17145;49.902;8.680;'2024-03-07 03:10:53';100720;;;5;49
30343;BME280;17145;49.902;8.680;'2024-03-07 03:13:20';100720;;;5;48
30343;BME280;17145;49.902;8.680;'2024-03-07 03:15:48';100720;;;4;49
30343;BME280;17145;49.902;8.680;'2024-03-07 03:18:15';100720;;;4;49
30343;BME280;17145;49.902;8.680;'2024-03-07 03:20:43';100720;;;4;49
30343;BME280;17145;49.902;8.680;'2024-03-07 03:23:10';100720;;;4;49
30343;BME280;17145;49.902;8.680;'2024-03-07 03:25:38';100720;;;4;49
30343;BME280;17145;49.902;8.680;'2024-03-07 03:28:06';100720;;;4;49
30343;BME280;17145;49.902;8.680;'2024-03-07 03:30:33';100720;;;4;49
30343;BME280;17145;49.902;8.680;'2024-03-07 03:33:00';100720;;;4;49
30343;BME280;17145;49.902;8.680;'2024-03-07 03:35:28';100710;;;4;49
30343;BME280;17145;49.902;8.680;'2024-03-07 03:37:55';100720;;;4;49
30343;BME280;17145;49.902;8.680;'2024-03-07 03:40:22';100720;;;4;49
30343;BME280;17145;49.902;8.680;'2024-03-07 03:42:50';100720;;;4;49
30343;BME280;17145;49.902;8.680;'2024-03-07 03:45:17';100720;;;4;49
30343;BME280;17145;49.902;8.680;'2024-03-07 03:47:45';100720;;;4;49
30343;BME280;17145;49.902;8.680;'2024-03-07 03:50:12';100720;;;4;49
30343;BME280;17145;49.902;8.680;'2024-03-07 03:52:39';100720;;;4;49
30343;BME280;17145;49.902;8.680;'2024-03-07 03:55:07';100720;;;4;49
30343;BME280;17145;49.902;8.680;'2024-03-07 03:57:35';100720;;;4;49
30343;BME280;17145;49.902;8.680;'2024-03-07 04:00:03';100710;;;4;49
30343;BME280;17145;49.902;8.680;'2024-03-07 04:02:30';100710;;;4;49
30343;BME280;17145;49.902;8.680;'2024-03-07 04:04:57';100710;;;4;49
30343;BME280;17145;49.902;8.680;'2024-03-07 04:07:25';100710;;;4;49
30343;BME280;17145;49.902;8.680;'2024-03-07 04:09:52';100710;;;4;49
30343;BME280;17145;49.902;8.680;'2024-03-07 04:12:19';100710;;;4;49
30343;BME280;17145;49.902;8.680;'2024-03-07 04:14:47';100710;;;4;49
30343;BME280;17145;49.902;8.680;'2024-03-07 04:17:14';100710;;;4;49
30343;BME280;17145;49.902;8.680;'2024-03-07 04:19:42';100710;;;3;49
30343;BME280;17145;49.902;8.680;'2024-03-07 04:22:09';100710;;;3;49
30343;BME280;17145;49.902;8.680;'2024-03-07 04:24:36';100700;;;3;49
30343;BME280;17145;49.902;8.680;'2024-03-07 04:27:04';100710;;;4;49
30343;BME280;17145;49.902;8.680;'2024-03-07 04:29:31';100710;;;4;49
30343;BME280;17145;49.902;8.680;'2024-03-07 04:31:59';100700;;;4;49
30343;BME280;17145;49.902;8.680;'2024-03-07 04:34:26';100700;;;3;49
30343;BME280;17145;49.902;8.680;'2024-03-07 04:36:57';100700;;;3;49
30343;BME280;17145;49.902;8.680;'2024-03-07 04:39:24';100700;;;3;49
30343;BME280;17145;49.902;8.680;'2024-03-07 04:41:52';100700;;;3;50
30343;BME280;17145;49.902;8.680;'2024-03-07 04:44:19';100700;;;3;50
30343;BME280;17145;49.902;8.680;'2024-03-07 04:46:46';100700;;;3;50
30343;BME280;17145;49.902;8.680;'2024-03-07 04:49:14';100700;;;3;49
30343;BME280;17145;49.902;8.680;'2024-03-07 04:51:41';100700;;;3;50
30343;BME280;17145;49.902;8.680;'2024-03-07 04:54:08';100700;;;3;50
30343;BME280;17145;49.902;8.680;'2024-03-07 04:56:36';100700;;;3;50
30343;BME280;17145;49.902;8.680;'2024-03-07 04:59:03';100700;;;3;50
30343;BME280;17145;49.902;8.680;'2024-03-07 05:01:31';100700;;;3;50
30343;BME280;17145;49.902;8.680;'2024-03-07 05:03:58';100700;;;3;50
30343;BME280;17145;49.902;8.680;'2024-03-07 05:06:25';100700;;;3;50
30343;BME280;17145;49.902;8.680;'2024-03-07 05:08:53';100700;;;3;50
30343;BME280;17145;49.902;8.680;'2024-03-07 05:11:20';100700;;;3;50
30343;BME280;17145;49.902;8.680;'2024-03-07 05:13:50';100700;;;3;50
30343;BME280;17145;49.902;8.680;'2024-03-07 05:16:17';100700;;;3;50
30343;BME280;17145;49.902;8.680;'2024-03-07 05:18:44';100700;;;3;50
30343;BME280;17145;49.902;8.680;'2024-03-07 05:21:12';100700;;;3;50
30343;BME280;17145;49.902;8.680;'2024-03-07 05:23:40';100700;;;3;50
30343;BME280;17145;49.902;8.680;'2024-03-07 05:26:07';100700;;;3;50
30343;BME280;17145;49.902;8.680;'2024-03-07 05:28:35';100700;;;3;50
30343;BME280;17145;49.902;8.680;'2024-03-07 05:31:02';100700;;;3;50
30343;BME280;17145;49.902;8.680;'2024-03-07 05:33:30';100700;;;3;51
30343;BME280;17145;49.902;8.680;'2024-03-07 05:35:58';100700;;;3;51
30343;BME280;17145;49.902;8.680;'2024-03-07 05:38:25';100700;;;3;51
30343;BME280;17145;49.902;8.680;'2024-03-07 05:40:55';100700;;;3;51
30343;BME280;17145;49.902;8.680;'2024-03-07 05:43:22';100690;;;3;51
30343;BME280;17145;49.902;8.680;'2024-03-07 05:45:49';100690;;;3;51
30343;BME280;17145;49.902;8.680;'2024-03-07 05:48:17';100690;;;3;51
30343;BME280;17145;49.902;8.680;'2024-03-07 05:50:45';100690;;;3;51
30343;BME280;17145;49.902;8.680;'2024-03-07 05:53:12';100690;;;3;51
30343;BME280;17145;49.902;8.680;'2024-03-07 05:55:40';100690;;;3;51
30343;BME280;17145;49.902;8.680;'2024-03-07 05:58:07';100700;;;3;51
30343;BME280;17145;49.902;8.680;'2024-03-07 06:00:34';100700;;;3;51
30343;BME280;17145;49.902;8.680;'2024-03-07 06:03:02';100700;;;3;51
30343;BME280;17145;49.902;8.680;'2024-03-07 06:05:29';100700;;;3;51
30343;BME280;17145;49.902;8.680;'2024-03-07 06:07:56';100700;;;3;51
30343;BME280;17145;49.902;8.680;'2024-03-07 06:10:24';100700;;;3;51
30343;BME280;17145;49.902;8.680;'2024-03-07 06:12:51';100690;;;4;51
30343;BME280;17145;49.902;8.680;'2024-03-07 06:15:19';100700;;;2;51
30343;BME280;17145;49.902;8.680;'2024-03-07 06:17:46';100700;;;4;51
30343;BME280;17145;49.902;8.680;'2024-03-07 06:20:13';100700;;;3;51
30343;BME280;17145;49.902;8.680;'2024-03-07 06:22:41';100700;;;3;51
30343;BME280;17145;49.902;8.680;'2024-03-07 06:25:08';100700;;;3;51
30343;BME280;17145;49.902;8.680;'2024-03-07 06:27:36';100700;;;3;51
30343;BME280;17145;49.902;8.680;'2024-03-07 06:30:04';100700;;;3;51
30343;BME280;17145;49.902;8.680;'2024-03-07 06:32:31';100700;;;3;50
30343;BME280;17145;49.902;8.680;'2024-03-07 06:34:58';100700;;;3;50
30343;BME280;17145;49.902;8.680;'2024-03-07 06:37:26';100700;;;3;50
30343;BME280;17145;49.902;8.680;'2024-03-07 06:39:53';100700;;;3;50
30343;BME280;17145;49.902;8.680;'2024-03-07 06:42:20';100700;;;3;50
30343;BME280;17145;49.902;8.680;'2024-03-07 06:44:48';100700;;;3;50
30343;BME280;17145;49.902;8.680;'2024-03-07 06:47:15';100700;;;3;50
30343;BME280;17145;49.902;8.680;'2024-03-07 06:49:43';100700;;;3;50
30343;BME280;17145;49.902;8.680;'2024-03-07 06:52:10';100690;;;3;50
30343;BME280;17145;49.902;8.680;'2024-03-07 06:54:38';100700;;;3;50
30343;BME280;17145;49.902;8.680;'2024-03-07 06:57:05';100690;;;3;50
30343;BME280;17145;49.902;8.680;'2024-03-07 06:59:33';100690;;;3;51
30343;BME280;17145;49.902;8.680;'2024-03-07 07:02:00';100700;;;3;51
30343;BME280;17145;49.902;8.680;'2024-03-07 07:04:28';100700;;;3;51
30343;BME280;17145;49.902;8.680;'2024-03-07 07:06:55';100690;;;3;51
30343;BME280;17145;49.902;8.680;'2024-03-07 07:09:22';100700;;;3;51
30343;BME280;17145;49.902;8.680;'2024-03-07 07:11:50';100690;;;3;51
30343;BME280;17145;49.902;8.680;'2024-03-07 07:14:17';100690;;;3;51
30343;BME280;17145;49.902;8.680;'2024-03-07 07:16:45';100700;;;3;51
30343;BME280;17145;49.902;8.680;'2024-03-07 07:19:12';100690;;;3;51
30343;BME280;17145;49.902;8.680;'2024-03-07 07:21:40';100690;;;3;51
30343;BME280;17145;49.902;8.680;'2024-03-07 07:24:08';100690;;;3;51
30343;BME280;17145;49.902;8.680;'2024-03-07 07:26:36';100690;;;3;51
30343;BME280;17145;49.902;8.680;'2024-03-07 07:29:04';100700;;;3;51
30343;BME280;17145;49.902;8.680;'2024-03-07 07:31:32';100700;;;3;51
30343;BME280;17145;49.902;8.680;'2024-03-07 07:33:59';100700;;;3;51
30343;BME280;17145;49.902;8.680;'2024-03-07 07:36:26';100700;;;3;50
30343;BME280;17145;49.902;8.680;'2024-03-07 07:38:54';100700;;;3;50
30343;BME280;17145;49.902;8.680;'2024-03-07 07:41:22';100700;;;3;50
30343;BME280;17145;49.902;8.680;'2024-03-07 07:43:49';100700;;;4;50
30343;BME280;17145;49.902;8.680;'2024-03-07 07:46:16';100700;;;3;50
30343;BME280;17145;49.902;8.680;'2024-03-07 07:48:44';100700;;;4;50
30343;BME280;17145;49.902;8.680;'2024-03-07 07:51:11';100690;;;4;50
30343;BME280;17145;49.902;8.680;'2024-03-07 07:53:39';100690;;;4;50
30343;BME280;17145;49.902;8.680;'2024-03-07 07:56:06';100690;;;3;50
30343;BME280;17145;49.902;8.680;'2024-03-07 07:58:34';100700;;;4;50
30343;BME280;17145;49.902;8.680;'2024-03-07 08:01:01';100700;;;3;50
30343;BME280;17145;49.902;8.680;'2024-03-07 08:03:28';100700;;;4;50
30343;BME280;17145;49.902;8.680;'2024-03-07 08:05:56';100700;;;3;50
30343;BME280;17145;49.902;8.680;'2024-03-07 08:08:23';100700;;;4;50
30343;BME280;17145;49.902;8.680;'2024-03-07 08:10:51';100700;;;4;50
30343;BME280;17145;49.902;8.680;'2024-03-07 08:13:18';100700;;;4;50
30343;BME280;17145;49.902;8.680;'2024-03-07 08:15:45';100700;;;4;50
30343;BME280;17145;49.902;8.680;'2024-03-07 08:18:13';100700;;;4;50
30343;BME280;17145;49.902;8.680;'2024-03-07 08:20:42';100700;;;4;50
30343;BME280;17145;49.902;8.680;'2024-03-07 08:23:09';100700;;;4;50
30343;BME280;17145;49.902;8.680;'2024-03-07 08:25:36';100690;;;4;50
30343;BME280;17145;49.902;8.680;'2024-03-07 08:28:04';100690;;;4;49
30343;BME280;17145;49.902;8.680;'2024-03-07 08:30:32';100690;;;4;49
30343;BME280;17145;49.902;8.680;'2024-03-07 08:32:59';100690;;;4;49
30343;BME280;17145;49.902;8.680;'2024-03-07 08:35:27';100690;;;4;49
30343;BME280;17145;49.902;8.680;'2024-03-07 08:37:54';100680;;;4;49
30343;BME280;17145;49.902;8.680;'2024-03-07 08:40:23';100680;;;4;49
30343;BME280;17145;49.902;8.680;'2024-03-07 08:42:52';100680;;;4;49
30343;BME280;17145;49.902;8.680;'2024-03-07 08:45:21';100680;;;4;49
30343;BME280;17145;49.902;8.680;'2024-03-07 08:47:50';100680;;;5;48
30343;BME280;17145;49.902;8.680;'2024-03-07 08:50:19';100680;;;4;48
30343;BME280;17145;49.902;8.680;'2024-03-07 08:52:48';100680;;;5;48
30343;BME280;17145;49.902;8.680;'2024-03-07 08:55:16';100680;;;5;48
30343;BME280;17145;49.902;8.680;'2024-03-07 08:57:44';100670;;;5;48
30343;BME280;17145;49.902;8.680;'2024-03-07 09:00:13';100670;;;5;47
30343;BME280;17145;49.902;8.680;'2024-03-07 09:02:41';100670;;;5;47
30343;BME280;17145;49.902;8.680;'2024-03-07 09:05:08';100670;;;5;46
30343;BME280;17145;49.902;8.680;'2024-03-07 09:07:36';100670;;;5;46
30343;BME280;17145;49.902;8.680;'2024-03-07 09:10:06';100660;;;5;46
30343;BME280;17145;49.902;8.680;'2024-03-07 09:12:34';100660;;;5;46
30343;BME280;17145;49.902;8.680;'2024-03-07 09:15:01';100660;;;5;46
30343;BME280;17145;49.902;8.680;'2024-03-07 09:17:28';100660;;;5;45
30343;BME280;17145;49.902;8.680;'2024-03-07 09:19:56';100660;;;5;45
30343;BME280;17145;49.902;8.680;'2024-03-07 09:22:23';100660;;;5;45
30343;BME280;17145;49.902;8.680;'2024-03-07 09:24:51';100660;;;5;45
30343;BME280;17145;49.902;8.680;'2024-03-07 09:27:18';100660;;;5;44
30343;BME280;17145;49.902;8.680;'2024-03-07 09:29:45';100650;;;6;43
30343;BME280;17145;49.902;8.680;'2024-03-07 09:32:13';100650;;;5;44
30343;BME280;17145;49.902;8.680;'2024-03-07 09:34:40';100650;;;5;44
30343;BME280;17145;49.902;8.680;'2024-03-07 09:37:08';100650;;;6;43
30343;BME280;17145;49.902;8.680;'2024-03-07 09:39:35';100650;;;6;44
30343;BME280;17145;49.902;8.680;'2024-03-07 09:42:03';100640;;;6;44
30343;BME280;17145;49.902;8.680;'2024-03-07 09:44:30';100640;;;6;43
30343;BME280;17145;49.902;8.680;'2024-03-07 09:46:57';100640;;;6;43
30343;BME280;17145;49.902;8.680;'2024-03-07 09:49:25';100650;;;6;42
30343;BME280;17145;49.902;8.680;'2024-03-07 09:51:52';100650;;;6;43
30343;BME280;17145;49.902;8.680;'2024-03-07 09:54:19';100640;;;6;42
30343;BME280;17145;49.902;8.680;'2024-03-07 09:56:47';100640;;;6;41
30343;BME280;17145;49.902;8.680;'2024-03-07 09:59:15';100640;;;6;40
30343;BME280;17145;49.902;8.680;'2024-03-07 10:01:43';100650;;;6;40
30343;BME280;17145;49.902;8.680;'2024-03-07 10:04:10';100650;;;6;41
30343;BME280;17145;49.902;8.680;'2024-03-07 10:06:38';100650;;;6;41
30343;BME280;17145;49.902;8.680;'2024-03-07 10:09:05';100640;;;7;41
30343;BME280;17145;49.902;8.680;'2024-03-07 10:11:34';100650;;;7;41
30343;BME280;17145;49.902;8.680;'2024-03-07 10:14:01';100650;;;7;41
30343;BME280;17145;49.902;8.680;'2024-03-07 10:16:29';100650;;;6;41
30343;BME280;17145;49.902;8.680;'2024-03-07 10:18:57';100650;;;7;40
30343;BME280;17145;49.902;8.680;'2024-03-07 10:21:24';100640;;;7;40
30343;BME280;17145;49.902;8.680;'2024-03-07 10:23:52';100640;;;7;39
30343;BME280;17145;49.902;8.680;'2024-03-07 10:26:19';100640;;;7;40
30343;BME280;17145;49.902;8.680;'2024-03-07 10:28:47';100630;;;7;39
30343;BME280;17145;49.902;8.680;'2024-03-07 10:31:14';100630;;;7;39
30343;BME280;17145;49.902;8.680;'2024-03-07 10:33:42';100630;;;7;39
30343;BME280;17145;49.902;8.680;'2024-03-07 10:36:09';100630;;;7;39
30343;BME280;17145;49.902;8.680;'2024-03-07 10:38:37';100630;;;7;40
30343;BME280;17145;49.902;8.680;'2024-03-07 10:41:04';100630;;;7;39
30343;BME280;17145;49.902;8.680;'2024-03-07 10:43:34';100620;;;8;38
30343;BME280;17145;49.902;8.680;'2024-03-07 10:46:04';100620;;;7;38
30343;BME280;17145;49.902;8.680;'2024-03-07 10:48:31';100620;;;8;38
30343;BME280;17145;49.902;8.680;'2024-03-07 10:51:02';100620;;;8;38
30343;BME280;17145;49.902;8.680;'2024-03-07 10:53:29';100620;;;8;38
30343;BME280;17145;49.902;8.680;'2024-03-07 10:55:57';100620;;;8;38
30343;BME280;17145;49.902;8.680;'2024-03-07 10:58:28';100620;;;8;38
30343;BME280;17145;49.902;8.680;'2024-03-07 11:00:57';100620;;;8;38
30343;BME280;17145;49.902;8.680;'2024-03-07 11:03:29';100620;;;8;37
30343;BME280;17145;49.902;8.680;'2024-03-07 11:05:56';100630;;;8;37
30343;BME280;17145;49.902;8.680;'2024-03-07 11:08:25';100630;;;8;37
30343;BME280;17145;49.902;8.680;'2024-03-07 11:10:54';100620;;;8;37
30343;BME280;17145;49.902;8.680;'2024-03-07 11:13:21';100620;;;8;37
30343;BME280;17145;49.902;8.680;'2024-03-07 11:15:49';100620;;;8;38
30343;BME280;17145;49.902;8.680;'2024-03-07 11:18:16';100620;;;8;38
30343;BME280;17145;49.902;8.680;'2024-03-07 11:20:43';100610;;;8;37
30343;BME280;17145;49.902;8.680;'2024-03-07 11:23:11';100610;;;8;37
30343;BME280;17145;49.902;8.680;'2024-03-07 11:25:40';100600;;;9;38
30343;BME280;17145;49.902;8.680;'2024-03-07 11:28:09';100600;;;9;37
30343;BME280;17145;49.902;8.680;'2024-03-07 11:30:40';100600;;;9;37
30343;BME280;17145;49.902;8.680;'2024-03-07 11:33:07';100590;;;9;37
30343;BME280;17145;49.902;8.680;'2024-03-07 11:35:34';100590;;;9;36
30343;BME280;17145;49.902;8.680;'2024-03-07 11:38:03';100590;;;9;36
30343;BME280;17145;49.902;8.680;'2024-03-07 11:40:30';100590;;;9;36
30343;BME280;17145;49.902;8.680;'2024-03-07 11:42:58';100590;;;9;36
30343;BME280;17145;49.902;8.680;'2024-03-07 11:45:29';100580;;;9;36
30343;BME280;17145;49.902;8.680;'2024-03-07 11:47:57';100580;;;9;36
30343;BME280;17145;49.902;8.680;'2024-03-07 11:50:38';100580;;;10;36
30343;BME280;17145;49.902;8.680;'2024-03-07 11:53:14';100570;;;10;36
30343;BME280;17145;49.902;8.680;'2024-03-07 11:55:56';100560;;;10;36
30343;BME280;17145;49.902;8.680;'2024-03-07 11:58:32';100560;;;10;36
30343;BME280;17145;49.902;8.680;'2024-03-07 12:01:04';100560;;;10;36
30343;BME280;17145;49.902;8.680;'2024-03-07 12:03:34';100560;;;10;36
30343;BME280;17145;49.902;8.680;'2024-03-07 12:06:01';100560;;;10;36
30343;BME280;17145;49.902;8.680;'2024-03-07 12:08:29';100560;;;10;36
30343;BME280;17145;49.902;8.680;'2024-03-07 12:10:56';100550;;;10;36
30343;BME280;17145;49.902;8.680;'2024-03-07 12:13:24';100550;;;10;35
30343;BME280;17145;49.902;8.680;'2024-03-07 12:15:52';100550;;;10;36
30343;BME280;17145;49.902;8.680;'2024-03-07 12:18:20';100550;;;10;36
30343;BME280;17145;49.902;8.680;'2024-03-07 12:20:47';100550;;;10;35
30343;BME280;17145;49.902;8.680;'2024-03-07 12:23:24';100540;;;10;35
30343;BME280;17145;49.902;8.680;'2024-03-07 12:25:53';100540;;;10;35
30343;BME280;17145;49.902;8.680;'2024-03-07 12:31:05';100530;;;10;35
30343;BME280;17145;49.902;8.680;'2024-03-07 12:33:33';100530;;;10;35
30343;BME280;17145;49.902;8.680;'2024-03-07 12:36:00';100530;;;10;35
30343;BME280;17145;49.902;8.680;'2024-03-07 12:38:31';100520;;;10;35
30343;BME280;17145;49.902;8.680;'2024-03-07 12:41:00';100520;;;10;35
30343;BME280;17145;49.902;8.680;'2024-03-07 12:43:27';100520;;;11;35
30343;BME280;17145;49.902;8.680;'2024-03-07 12:45:55';100520;;;11;35
30343;BME280;17145;49.902;8.680;'2024-03-07 12:48:22';100500;;;11;36
30343;BME280;17145;49.902;8.680;'2024-03-07 12:50:50';100490;;;11;35
30343;BME280;17145;49.902;8.680;'2024-03-07 12:53:17';100490;;;11;36
30343;BME280;17145;49.902;8.680;'2024-03-07 12:55:45';100490;;;12;34
30343;BME280;17145;49.902;8.680;'2024-03-07 12:58:13';100480;;;11;35
30343;BME280;17145;49.902;8.680;'2024-03-07 13:00:42';100490;;;12;33
30343;BME280;17145;49.902;8.680;'2024-03-07 13:03:09';100480;;;12;34
30343;BME280;17145;49.902;8.680;'2024-03-07 13:05:38';100470;;;12;33
30343;BME280;17145;49.902;8.680;'2024-03-07 13:08:05';100460;;;12;33
30343;BME280;17145;49.902;8.680;'2024-03-07 13:10:32';100470;;;12;33
30343;BME280;17145;49.902;8.680;'2024-03-07 13:13:03';100470;;;12;34
30343;BME280;17145;49.902;8.680;'2024-03-07 13:15:30';100460;;;12;33
30343;BME280;17145;49.902;8.680;'2024-03-07 13:17:59';100460;;;12;34
30343;BME280;17145;49.902;8.680;'2024-03-07 13:20:26';100440;;;13;32
30343;BME280;17145;49.902;8.680;'2024-03-07 13:22:56';100440;;;13;32
30343;BME280;17145;49.902;8.680;'2024-03-07 13:25:24';100450;;;13;32
30343;BME280;17145;49.902;8.680;'2024-03-07 13:28:00';100440;;;13;32
30343;BME280;17145;49.902;8.680;'2024-03-07 13:30:28';100440;;;13;31
30343;BME280;17145;49.902;8.680;'2024-03-07 13:32:55';100440;;;13;31
30343;BME280;17145;49.902;8.680;'2024-03-07 13:35:23';100430;;;13;32
30343;BME280;17145;49.902;8.680;'2024-03-07 13:37:50';100430;;;13;31
30343;BME280;17145;49.902;8.680;'2024-03-07 13:40:20';100430;;;13;31
30343;BME280;17145;49.902;8.680;'2024-03-07 13:42:47';100430;;;13;31
30343;BME280;17145;49.902;8.680;'2024-03-07 13:45:16';100420;;;13;32
30343;BME280;17145;49.902;8.680;'2024-03-07 13:47:43';100430;;;13;31
30343;BME280;17145;49.902;8.680;'2024-03-07 13:50:11';100430;;;13;31
30343;BME280;17145;49.902;8.680;'2024-03-07 13:52:38';100420;;;13;31
30343;BME280;17145;49.902;8.680;'2024-03-07 13:55:07';100420;;;13;31
30343;BME280;17145;49.902;8.680;'2024-03-07 13:57:34';100420;;;13;31
30343;BME280;17145;49.902;8.680;'2024-03-07 14:00:02';100420;;;13;31
30343;BME280;17145;49.902;8.680;'2024-03-07 14:02:30';100420;;;13;31
30343;BME280;17145;49.902;8.680;'2024-03-07 14:04:58';100410;;;13;31
30343;BME280;17145;49.902;8.680;'2024-03-07 14:07:25';100410;;;13;30
30343;BME280;17145;49.902;8.680;'2024-03-07 14:09:53';100410;;;13;31
30343;BME280;17145;49.902;8.680;'2024-03-07 14:12:20';100410;;;13;32
30343;BME280;17145;49.902;8.680;'2024-03-07 14:14:48';100410;;;13;31
30343;BME280;17145;49.902;8.680;'2024-03-07 14:17:15';100410;;;12;30
30343;BME280;17145;49.902;8.680;'2024-03-07 14:19:43';100410;;;12;30
30343;BME280;17145;49.902;8.680;'2024-03-07 14:22:11';100410;;;12;31
30343;BME280;17145;49.902;8.680;'2024-03-07 14:24:38';100400;;;12;31
30343;BME280;17145;49.902;8.680;'2024-03-07 14:27:06';100410;;;12;31
30343;BME280;17145;49.902;8.680;'2024-03-07 14:29:33';100400;;;12;31
30343;BME280;17145;49.902;8.680;'2024-03-07 14:32:01';100400;;;12;31
30343;BME280;17145;49.902;8.680;'2024-03-07 14:34:28';100390;;;13;30
30343;BME280;17145;49.902;8.680;'2024-03-07 14:36:55';100390;;;13;30
30343;BME280;17145;49.902;8.680;'2024-03-07 14:39:24';100390;;;14;29
30343;BME280;17145;49.902;8.680;'2024-03-07 14:41:51';100390;;;14;29
30343;BME280;17145;49.902;8.680;'2024-03-07 14:44:18';100390;;;14;30
30343;BME280;17145;49.902;8.680;'2024-03-07 14:46:46';100390;;;14;29
30343;BME280;17145;49.902;8.680;'2024-03-07 14:49:13';100380;;;14;29
30343;BME280;17145;49.902;8.680;'2024-03-07 14:51:41';100380;;;14;28
30343;BME280;17145;49.902;8.680;'2024-03-07 14:54:09';100380;;;14;29
30343;BME280;17145;49.902;8.680;'2024-03-07 14:59:41';100380;;;13;29
30343;BME280;17145;49.902;8.680;'2024-03-07 15:05:03';100380;;;13;30
30343;BME280;17145;49.902;8.680;'2024-03-07 15:07:44';100370;;;13;29
30343;BME280;17145;49.902;8.680;'2024-03-07 15:13:17';100370;;;14;29
30343;BME280;17145;49.902;8.680;'2024-03-07 15:18:49';100360;;;14;28
30343;BME280;17145;49.902;8.680;'2024-03-07 15:21:36';100360;;;14;28
30343;BME280;17145;49.902;8.680;'2024-03-07 15:24:21';100350;;;14;28
30343;BME280;17145;49.902;8.680;'2024-03-07 15:27:07';100350;;;14;28
30343;BME280;17145;49.902;8.680;'2024-03-07 15:29:43';100360;;;14;28
30343;BME280;17145;49.902;8.680;'2024-03-07 15:32:12';100360;;;13;29
30343;BME280;17145;49.902;8.680;'2024-03-07 15:34:52';100360;;;13;29